Portada
METAR-TAF:

METAR-TAF

Aeroports :

Hyakuri, Japó

latitud: 36-11N, longitud: 140-25E, altitud: 32 m

Observació

L'informe es va fer fa 38 minuts, a les 17:00 UTC
Vent 1 kt amb direcció variable
Temperatura 14°C
Humitat 100%
Pressió 999 hPa
Visibilitat 10 km o més
Escasses núvols a una alçada de 1500 ft
Cel ennuvolat

METAR: RJAH 211700Z VRB01KT 9999 FEW015 BKN/// 14/14 Q0999

Hora: 02:38 (17:38 UTC)

Pronòstic

L'informe es va fer fa 33 minuts, a les 17:05 UTC
Pronòstic vàlid del 21 a les 18 UTC al 23 a les 00 UTC
Vent 7 kt del Nord-Oest
Visibilitat: 3000 m
Escasses núvols a una alçada de 300 ft
Cel ennuvolat a una alçada de 500 ft
boirina
Temporalment
l' 21 a les 18 UTC al 21 a les 21 UTC
Visibilitat: 1500 m
boirina, boira en bancs
Evolucionant progressivament
l' 21 a les 21 UTC al 21 a les 23 UTC
Visibilitat 10 km o més
Escasses núvols a una alçada de 3000 ft

TAF: RJAH 211705Z 2118/2300 32007KT 3000 BR FEW003 BKN005 TEMPO 2118/2121 1500 BR BCFG BECMG 2121/2123 9999 NSW FEW030

Observacions i pronòstics meteorològics de més de 4000 aeroports (METAR i TAF).

Les estacions disponibles són els punts grocs i vermells al mapa.

Posi el ratolí al punt desitjat per veure el nom de l'estació.

Feu clic per veure les observacions i els pronòstics meteorològics.

Per canviar el mapa: feu clic els botons verds amb una creu de color negre per apropar; al botó verd amb un guió per allunyar la imatge; o en les fletxes verdes per a mapes adjacents.


METAR-TAF: